• Join FlightAware (Why Join?)
  • Login
  • US Flag 
03:24PM EDT


 

Airport Tracker/Info


-or-


 

Live Flight TrackerFlight Track Log ✈ CTL15 ✈ 15-Jul-2013 ✈ KMGY - KBKL

Flight Track Log - Related Links

Times and Time Zones

All times are in EDT time to prevent confusion due to time zone crossing. See the CTL15 flight status page for this flight to view local times or setup timezone preferences in your user account.

Time Position Orientation Groundspeed Altitude Reporting Facility
EDT Latitude Longitude Course Direction KTS MPH feet Rate Location/Type
07:48PM 39.6722 -84.1253 46° Northeast 134 154 3,100  Level Indianapolis Center
07:49PM 39.6847 -84.1083 46° Northeast 104 120 3,900 840 Climbing Indianapolis Center
07:50PM 39.7117 -84.0722 46° Northeast 123 142 4,700 720 Climbing Indianapolis Center
07:51PM 39.7336 -84.0433 45° Northeast 128 147 5,400 660 Climbing Indianapolis Center
07:52PM 39.7425 -84.0300 49° Northeast 122 140 5,700 540 Climbing Indianapolis Center
07:52PM 39.7544 -84.0036 60° Northeast 132 152 6,000 540 Climbing Indianapolis Center
07:53PM 39.7642 -83.9897 48° Northeast 129 148 6,300 540 Climbing Indianapolis Center
07:53PM 39.7814 -83.9672 45° Northeast 140 161 6,600 360 Climbing Indianapolis Center
07:54PM 39.7914 -83.9536 46° Northeast 134 154 6,700 300 Climbing Indianapolis Center
07:54PM 39.8131 -83.9264 44° Northeast 144 166 7,000 180 Climbing Indianapolis Center
07:55PM 39.8397 -83.8931 44° Northeast 157 181 7,000 60 Level Indianapolis Center
07:56PM 39.8522 -83.8747 48° Northeast 150 173 7,100  Climbing Indianapolis Center
07:57PM 39.8814 -83.8272 51° Northeast 160 184 7,000 -60 Descending Indianapolis Center
07:58PM 39.9164 -83.7717 51° Northeast 165 190 7,000  Level Indianapolis Center
07:59PM 39.9483 -83.7294 45° Northeast 164 189 7,000  Level Indianapolis Center
08:00PM 39.9794 -83.6847 48° Northeast 163 188 7,000  Level Indianapolis Center
08:01PM 40.0128 -83.6425 44° Northeast 164 189 7,100  Climbing Indianapolis Center
08:02PM 40.0472 -83.5989 44° Northeast 167 192 7,000 -60 Descending Indianapolis Center
08:03PM 40.0817 -83.5558 44° Northeast 169 194 7,000  Level Indianapolis Center
08:04PM 40.1172 -83.5133 42° Northeast 170 196 7,100  Climbing Indianapolis Center
08:05PM 40.1514 -83.4703 44° Northeast 169 194 7,000 -60 Descending Indianapolis Center
08:06PM 40.1842 -83.4272 45° Northeast 167 192 7,000  Level Indianapolis Center
08:07PM 40.2172 -83.3828 46° Northeast 168 193 7,100  Climbing Indianapolis Center
08:08PM 40.2514 -83.3408 43° Northeast 166 191 7,100  Level Indianapolis Center
08:09PM 40.2847 -83.2997 43° Northeast 165 190 7,100 -60 Level Indianapolis Center
08:10PM 40.3169 -83.2564 46° Northeast 164 189 7,000 -60 Descending Indianapolis Center
08:11PM 40.3558 -83.2061 45° Northeast 165 190 7,000  Level Indianapolis Center
08:12PM 40.3883 -83.1636 45° Northeast 165 190 7,000  Level Indianapolis Center
08:13PM 40.4219 -83.1219 43° Northeast 164 189 7,000  Level Indianapolis Center
08:14PM 40.4553 -83.0789 44° Northeast 166 191 7,000  Level Indianapolis Center
08:15PM 40.4886 -83.0361 44° Northeast 166 191 7,000  Level Indianapolis Center
08:16PM 40.5147 -82.9786 59° Northeast 166 191 7,000 -60 Level Indianapolis Center
08:17PM 40.5381 -82.9253 60° Northeast 167 192 6,900  Descending Indianapolis Center
08:18PM 40.5633 -82.8742 57° Northeast 167 192 7,000  Climbing Indianapolis Center
08:19PM 40.5919 -82.8250 53° Northeast 168 193 7,000  Level Indianapolis Center
08:20PM 40.6211 -82.7769 51° Northeast 167 192 7,000  Level Indianapolis Center
08:22PM 40.6500 -82.7267 53° Northeast 170 196 7,000  Level Indianapolis Center
08:23PM 40.6753 -82.6753 57° Northeast 167 192 7,000  Level Indianapolis Center